Portada
METAR-TAF:

METAR-TAF

Aeroports :

Mykolàïv, Ucraïna

latitud: 47-03-29N, longitud: 031-55-15E, altitud: 56 m

Observació

L'informe es va fer fa 11 hores i 4 minuts, a les 14:00 UTC
Vent 12 kt del Sud/Sud-Oest
Temperatura 7°C
Humitat 87%
Pressió 1016 hPa
Visibilitat 10 km o més
sense núvols per sota de 1500 mi sense presència de cumulonimbus.

METAR: UKON 221400Z 20006MPS CAVOK 07/05 Q1016 R22/290165 NOSIG

Hora: 03:04 (01:04 UTC)

Pronòstic

L'informe es va fer fa 14 hores i 2 minuts, a les 11:02 UTC
Pronòstic vàlid del 22 a les 12 UTC al 22 a les 21 UTC
Vent 12 kt del Sud amb ràfegues de 23 kt
Visibilitat: 2100 m
Núvols disperses a una alçada de 300 ft
Cel ennuvolat a una alçada de 700 ft
boirina
Probabilitat 40% :
Temporalment
l' 22 a les 12 UTC al 22 a les 15 UTC
Visibilitat: 0300 m
a una alçada de 200 ft
boira

TAF: UKON 221102Z 2212/2221 19006G12MPS 2100 BR SCT003 BKN007 TX08/2213Z TN03/2221Z PROB40 TEMPO 2212/2215 0300 FG VV002

Observacions i pronòstics meteorològics de més de 4000 aeroports (METAR i TAF).

Les estacions disponibles són els punts grocs i vermells al mapa.

Posi el ratolí al punt desitjat per veure el nom de l'estació.

Feu clic per veure les observacions i els pronòstics meteorològics.

Per canviar el mapa: feu clic els botons verds amb una creu de color negre per apropar; al botó verd amb un guió per allunyar la imatge; o en les fletxes verdes per a mapes adjacents.


METAR-TAF: